sensor_id;sensor_type;location;lat;lon;timestamp;temperature;humidity
27779;DHT22;30234;48.090;11.464;2023-10-31T00:03:47;10.00;99.90
27779;DHT22;30234;48.090;11.464;2023-10-31T00:07:48;9.80;99.90
27779;DHT22;30234;48.090;11.464;2023-10-31T00:11:49;9.70;99.90
27779;DHT22;30234;48.090;11.464;2023-10-31T00:15:50;9.60;99.90
27779;DHT22;30234;48.090;11.464;2023-10-31T00:19:50;9.60;99.90
27779;DHT22;30234;48.090;11.464;2023-10-31T00:23:51;9.40;99.90
27779;DHT22;30234;48.090;11.464;2023-10-31T00:27:52;9.40;99.90
27779;DHT22;30234;48.090;11.464;2023-10-31T00:31:53;9.40;99.90
27779;DHT22;30234;48.090;11.464;2023-10-31T00:35:54;9.40;99.90
27779;DHT22;30234;48.090;11.464;2023-10-31T00:39:55;9.40;99.90
27779;DHT22;30234;48.090;11.464;2023-10-31T00:43:55;9.40;99.90
27779;DHT22;30234;48.090;11.464;2023-10-31T00:47:56;9.30;99.90
27779;DHT22;30234;48.090;11.464;2023-10-31T00:51:57;9.30;99.90
27779;DHT22;30234;48.090;11.464;2023-10-31T00:55:58;9.30;99.90
27779;DHT22;30234;48.090;11.464;2023-10-31T00:59:59;9.30;99.90
27779;DHT22;30234;48.090;11.464;2023-10-31T01:04:00;9.30;99.90
27779;DHT22;30234;48.090;11.464;2023-10-31T01:08:00;9.30;99.90
27779;DHT22;30234;48.090;11.464;2023-10-31T01:12:01;9.30;99.90
27779;DHT22;30234;48.090;11.464;2023-10-31T01:16:03;9.30;99.90
27779;DHT22;30234;48.090;11.464;2023-10-31T01:20:05;9.30;99.90
27779;DHT22;30234;48.090;11.464;2023-10-31T01:24:07;9.30;99.90
27779;DHT22;30234;48.090;11.464;2023-10-31T01:28:08;9.30;99.90
27779;DHT22;30234;48.090;11.464;2023-10-31T01:32:09;9.30;99.90
27779;DHT22;30234;48.090;11.464;2023-10-31T01:36:10;9.30;99.90
27779;DHT22;30234;48.090;11.464;2023-10-31T01:40:13;9.30;99.90
27779;DHT22;30234;48.090;11.464;2023-10-31T01:44:14;9.30;99.90
27779;DHT22;30234;48.090;11.464;2023-10-31T01:48:15;9.20;99.90
27779;DHT22;30234;48.090;11.464;2023-10-31T01:52:16;9.30;99.90
27779;DHT22;30234;48.090;11.464;2023-10-31T01:56:17;9.30;99.90
27779;DHT22;30234;48.090;11.464;2023-10-31T02:00:18;9.20;99.90
27779;DHT22;30234;48.090;11.464;2023-10-31T02:04:19;9.20;99.90
27779;DHT22;30234;48.090;11.464;2023-10-31T02:08:20;9.10;99.90
27779;DHT22;30234;48.090;11.464;2023-10-31T02:12:32;9.10;99.90
27779;DHT22;30234;48.090;11.464;2023-10-31T02:16:34;9.00;99.90
27779;DHT22;30234;48.090;11.464;2023-10-31T02:20:35;9.00;99.90
27779;DHT22;30234;48.090;11.464;2023-10-31T02:24:36;9.00;99.90
27779;DHT22;30234;48.090;11.464;2023-10-31T02:28:37;9.00;99.90
27779;DHT22;30234;48.090;11.464;2023-10-31T02:32:38;9.00;99.90
27779;DHT22;30234;48.090;11.464;2023-10-31T02:36:39;8.90;99.90
27779;DHT22;30234;48.090;11.464;2023-10-31T02:40:40;8.90;99.90
27779;DHT22;30234;48.090;11.464;2023-10-31T02:44:41;8.90;99.90
27779;DHT22;30234;48.090;11.464;2023-10-31T02:48:41;8.90;99.90
27779;DHT22;30234;48.090;11.464;2023-10-31T02:52:43;8.90;99.90
27779;DHT22;30234;48.090;11.464;2023-10-31T02:56:43;8.90;99.90
27779;DHT22;30234;48.090;11.464;2023-10-31T03:00:44;8.80;99.90
27779;DHT22;30234;48.090;11.464;2023-10-31T03:04:45;8.80;99.90
27779;DHT22;30234;48.090;11.464;2023-10-31T03:08:46;8.70;99.90
27779;DHT22;30234;48.090;11.464;2023-10-31T03:12:47;8.80;99.90
27779;DHT22;30234;48.090;11.464;2023-10-31T03:16:48;8.80;99.90
27779;DHT22;30234;48.090;11.464;2023-10-31T03:20:49;8.80;99.90
27779;DHT22;30234;48.090;11.464;2023-10-31T03:24:50;8.80;99.90
27779;DHT22;30234;48.090;11.464;2023-10-31T03:28:51;8.80;99.90
27779;DHT22;30234;48.090;11.464;2023-10-31T03:32:57;8.80;99.90
27779;DHT22;30234;48.090;11.464;2023-10-31T03:36:58;8.80;99.90
27779;DHT22;30234;48.090;11.464;2023-10-31T03:40:59;8.70;99.90
27779;DHT22;30234;48.090;11.464;2023-10-31T03:45:00;8.70;99.90
27779;DHT22;30234;48.090;11.464;2023-10-31T03:49:01;8.70;99.90
27779;DHT22;30234;48.090;11.464;2023-10-31T03:53:02;8.70;99.90
27779;DHT22;30234;48.090;11.464;2023-10-31T03:57:03;8.70;99.90
27779;DHT22;30234;48.090;11.464;2023-10-31T04:01:04;8.70;99.90
27779;DHT22;30234;48.090;11.464;2023-10-31T04:05:05;8.70;99.90
27779;DHT22;30234;48.090;11.464;2023-10-31T04:09:07;8.70;99.90
27779;DHT22;30234;48.090;11.464;2023-10-31T04:13:08;8.60;99.90
27779;DHT22;30234;48.090;11.464;2023-10-31T04:17:09;8.60;99.90
27779;DHT22;30234;48.090;11.464;2023-10-31T04:21:10;8.60;99.90
27779;DHT22;30234;48.090;11.464;2023-10-31T04:25:11;8.60;99.90
27779;DHT22;30234;48.090;11.464;2023-10-31T04:29:12;8.60;99.90
27779;DHT22;30234;48.090;11.464;2023-10-31T04:33:13;8.60;99.90
27779;DHT22;30234;48.090;11.464;2023-10-31T04:37:13;8.60;99.90
27779;DHT22;30234;48.090;11.464;2023-10-31T04:41:14;8.60;99.90
27779;DHT22;30234;48.090;11.464;2023-10-31T04:45:15;8.60;99.90
27779;DHT22;30234;48.090;11.464;2023-10-31T04:49:16;8.60;99.90
27779;DHT22;30234;48.090;11.464;2023-10-31T04:53:17;8.60;99.90
27779;DHT22;30234;48.090;11.464;2023-10-31T04:57:18;8.50;99.90
27779;DHT22;30234;48.090;11.464;2023-10-31T05:01:19;8.60;99.90
27779;DHT22;30234;48.090;11.464;2023-10-31T05:05:19;8.70;99.90
27779;DHT22;30234;48.090;11.464;2023-10-31T05:09:20;8.70;99.90
27779;DHT22;30234;48.090;11.464;2023-10-31T05:13:21;8.70;99.90
27779;DHT22;30234;48.090;11.464;2023-10-31T05:17:22;8.80;99.90
27779;DHT22;30234;48.090;11.464;2023-10-31T05:21:23;8.90;99.90
27779;DHT22;30234;48.090;11.464;2023-10-31T05:25:24;8.90;99.90
27779;DHT22;30234;48.090;11.464;2023-10-31T05:29:25;8.90;99.90
27779;DHT22;30234;48.090;11.464;2023-10-31T05:33:26;8.90;99.90
27779;DHT22;30234;48.090;11.464;2023-10-31T05:37:27;8.90;99.90
27779;DHT22;30234;48.090;11.464;2023-10-31T05:41:27;8.90;99.90
27779;DHT22;30234;48.090;11.464;2023-10-31T05:45:29;8.90;99.90
27779;DHT22;30234;48.090;11.464;2023-10-31T05:49:30;8.80;99.90
27779;DHT22;30234;48.090;11.464;2023-10-31T05:53:31;8.90;99.90
27779;DHT22;30234;48.090;11.464;2023-10-31T05:57:34;8.90;99.90
27779;DHT22;30234;48.090;11.464;2023-10-31T06:01:35;8.90;99.90
27779;DHT22;30234;48.090;11.464;2023-10-31T06:05:36;8.90;99.90
27779;DHT22;30234;48.090;11.464;2023-10-31T06:09:37;8.90;99.90
27779;DHT22;30234;48.090;11.464;2023-10-31T06:13:37;8.90;99.90
27779;DHT22;30234;48.090;11.464;2023-10-31T06:17:38;8.90;99.90
27779;DHT22;30234;48.090;11.464;2023-10-31T06:21:40;8.80;99.90
27779;DHT22;30234;48.090;11.464;2023-10-31T06:25:40;8.90;99.90
27779;DHT22;30234;48.090;11.464;2023-10-31T06:29:41;8.90;99.90
27779;DHT22;30234;48.090;11.464;2023-10-31T06:33:42;8.90;99.90
27779;DHT22;30234;48.090;11.464;2023-10-31T06:37:43;9.00;99.90
27779;DHT22;30234;48.090;11.464;2023-10-31T06:41:44;9.00;99.90
27779;DHT22;30234;48.090;11.464;2023-10-31T06:45:45;8.90;99.90
27779;DHT22;30234;48.090;11.464;2023-10-31T06:49:45;8.90;99.90
27779;DHT22;30234;48.090;11.464;2023-10-31T06:53:46;9.00;99.90
27779;DHT22;30234;48.090;11.464;2023-10-31T06:57:47;9.00;99.90
27779;DHT22;30234;48.090;11.464;2023-10-31T07:01:48;9.00;99.90
27779;DHT22;30234;48.090;11.464;2023-10-31T07:05:49;9.00;99.90
27779;DHT22;30234;48.090;11.464;2023-10-31T07:09:50;9.00;99.90
27779;DHT22;30234;48.090;11.464;2023-10-31T07:13:51;9.10;99.90
27779;DHT22;30234;48.090;11.464;2023-10-31T07:17:52;9.10;99.90
27779;DHT22;30234;48.090;11.464;2023-10-31T07:21:53;9.10;99.90
27779;DHT22;30234;48.090;11.464;2023-10-31T07:25:54;9.20;99.90
27779;DHT22;30234;48.090;11.464;2023-10-31T07:29:55;9.30;99.90
27779;DHT22;30234;48.090;11.464;2023-10-31T07:33:56;9.40;99.90
27779;DHT22;30234;48.090;11.464;2023-10-31T07:37:57;9.50;99.90
27779;DHT22;30234;48.090;11.464;2023-10-31T07:41:58;9.60;99.90
27779;DHT22;30234;48.090;11.464;2023-10-31T07:45:58;9.70;99.90
27779;DHT22;30234;48.090;11.464;2023-10-31T07:49:59;9.80;99.90
27779;DHT22;30234;48.090;11.464;2023-10-31T07:54:00;9.90;99.90
27779;DHT22;30234;48.090;11.464;2023-10-31T07:58:03;9.80;99.90
27779;DHT22;30234;48.090;11.464;2023-10-31T08:02:04;9.80;99.90
27779;DHT22;30234;48.090;11.464;2023-10-31T08:06:06;9.70;99.90
27779;DHT22;30234;48.090;11.464;2023-10-31T08:10:08;9.60;99.90
27779;DHT22;30234;48.090;11.464;2023-10-31T08:14:09;9.60;99.90
27779;DHT22;30234;48.090;11.464;2023-10-31T08:18:10;9.70;99.90
27779;DHT22;30234;48.090;11.464;2023-10-31T08:22:12;9.80;99.90
27779;DHT22;30234;48.090;11.464;2023-10-31T08:26:13;9.80;99.90
27779;DHT22;30234;48.090;11.464;2023-10-31T08:30:14;9.90;99.90
27779;DHT22;30234;48.090;11.464;2023-10-31T08:34:15;10.00;99.90
27779;DHT22;30234;48.090;11.464;2023-10-31T08:38:16;10.00;99.90
27779;DHT22;30234;48.090;11.464;2023-10-31T08:42:16;10.00;99.90
27779;DHT22;30234;48.090;11.464;2023-10-31T08:46:17;9.90;99.90
27779;DHT22;30234;48.090;11.464;2023-10-31T08:50:18;10.00;99.90
27779;DHT22;30234;48.090;11.464;2023-10-31T08:54:19;10.00;99.90
27779;DHT22;30234;48.090;11.464;2023-10-31T08:58:20;10.10;99.90
27779;DHT22;30234;48.090;11.464;2023-10-31T09:02:21;10.10;99.90
27779;DHT22;30234;48.090;11.464;2023-10-31T09:06:22;10.10;99.90
27779;DHT22;30234;48.090;11.464;2023-10-31T09:10:23;10.20;99.90
27779;DHT22;30234;48.090;11.464;2023-10-31T09:14:24;10.30;99.90
27779;DHT22;30234;48.090;11.464;2023-10-31T09:18:25;10.40;99.90
27779;DHT22;30234;48.090;11.464;2023-10-31T09:22:26;10.40;99.90
27779;DHT22;30234;48.090;11.464;2023-10-31T09:26:26;10.40;99.90
27779;DHT22;30234;48.090;11.464;2023-10-31T09:30:27;10.60;99.90
27779;DHT22;30234;48.090;11.464;2023-10-31T09:34:28;10.50;99.90
27779;DHT22;30234;48.090;11.464;2023-10-31T09:38:29;10.60;99.90
27779;DHT22;30234;48.090;11.464;2023-10-31T09:42:30;10.70;99.90
27779;DHT22;30234;48.090;11.464;2023-10-31T09:46:31;10.70;99.90
27779;DHT22;30234;48.090;11.464;2023-10-31T09:50:33;10.70;99.90
27779;DHT22;30234;48.090;11.464;2023-10-31T09:54:35;10.70;99.90
27779;DHT22;30234;48.090;11.464;2023-10-31T09:58:37;10.80;99.90
27779;DHT22;30234;48.090;11.464;2023-10-31T10:02:40;11.00;99.90
27779;DHT22;30234;48.090;11.464;2023-10-31T10:07:00;11.10;99.90
27779;DHT22;30234;48.090;11.464;2023-10-31T10:11:02;11.00;99.90
27779;DHT22;30234;48.090;11.464;2023-10-31T10:15:04;11.00;99.90
27779;DHT22;30234;48.090;11.464;2023-10-31T10:19:22;11.10;99.90
27779;DHT22;30234;48.090;11.464;2023-10-31T10:23:24;11.20;99.90
27779;DHT22;30234;48.090;11.464;2023-10-31T10:27:26;11.30;99.90
27779;DHT22;30234;48.090;11.464;2023-10-31T10:31:27;11.50;99.90
27779;DHT22;30234;48.090;11.464;2023-10-31T10:35:27;11.50;99.90
27779;DHT22;30234;48.090;11.464;2023-10-31T10:39:29;11.40;99.90
27779;DHT22;30234;48.090;11.464;2023-10-31T10:43:37;11.50;99.90
27779;DHT22;30234;48.090;11.464;2023-10-31T10:47:39;11.40;99.90
27779;DHT22;30234;48.090;11.464;2023-10-31T10:51:45;11.80;99.90
27779;DHT22;30234;48.090;11.464;2023-10-31T10:56:00;12.00;99.90
27779;DHT22;30234;48.090;11.464;2023-10-31T11:00:05;12.20;99.90
27779;DHT22;30234;48.090;11.464;2023-10-31T11:04:10;12.20;99.90
27779;DHT22;30234;48.090;11.464;2023-10-31T11:08:11;12.20;99.90
27779;DHT22;30234;48.090;11.464;2023-10-31T11:12:12;12.20;99.90
27779;DHT22;30234;48.090;11.464;2023-10-31T11:16:22;12.50;99.90
27779;DHT22;30234;48.090;11.464;2023-10-31T11:20:27;12.50;99.90
27779;DHT22;30234;48.090;11.464;2023-10-31T11:24:33;12.50;99.90
27779;DHT22;30234;48.090;11.464;2023-10-31T11:28:37;12.60;99.90
27779;DHT22;30234;48.090;11.464;2023-10-31T11:32:38;12.50;99.90
27779;DHT22;30234;48.090;11.464;2023-10-31T11:36:39;12.60;99.90
27779;DHT22;30234;48.090;11.464;2023-10-31T11:44:58;12.90;99.90
27779;DHT22;30234;48.090;11.464;2023-10-31T11:48:59;12.70;99.90
27779;DHT22;30234;48.090;11.464;2023-10-31T11:53:13;12.90;99.90
27779;DHT22;30234;48.090;11.464;2023-10-31T11:57:28;13.10;99.90
27779;DHT22;30234;48.090;11.464;2023-10-31T12:01:29;13.00;99.90
27779;DHT22;30234;48.090;11.464;2023-10-31T12:05:30;13.20;99.90
27779;DHT22;30234;48.090;11.464;2023-10-31T12:09:31;13.50;99.90
27779;DHT22;30234;48.090;11.464;2023-10-31T12:13:32;14.00;99.90
27779;DHT22;30234;48.090;11.464;2023-10-31T12:17:34;13.90;99.90
27779;DHT22;30234;48.090;11.464;2023-10-31T12:21:42;13.70;99.90
27779;DHT22;30234;48.090;11.464;2023-10-31T12:25:48;13.30;99.90
27779;DHT22;30234;48.090;11.464;2023-10-31T12:30:00;12.90;99.90
27779;DHT22;30234;48.090;11.464;2023-10-31T12:34:08;12.70;99.90
27779;DHT22;30234;48.090;11.464;2023-10-31T12:38:13;12.80;99.90
27779;DHT22;30234;48.090;11.464;2023-10-31T12:42:14;13.10;99.90
27779;DHT22;30234;48.090;11.464;2023-10-31T12:46:25;12.80;99.90
27779;DHT22;30234;48.090;11.464;2023-10-31T12:50:33;12.90;99.90
27779;DHT22;30234;48.090;11.464;2023-10-31T12:54:36;12.50;99.90
27779;DHT22;30234;48.090;11.464;2023-10-31T12:58:37;12.30;99.90
27779;DHT22;30234;48.090;11.464;2023-10-31T13:02:39;12.30;99.90
27779;DHT22;30234;48.090;11.464;2023-10-31T13:06:40;12.60;99.90
27779;DHT22;30234;48.090;11.464;2023-10-31T13:10:41;12.30;99.90
27779;DHT22;30234;48.090;11.464;2023-10-31T13:14:43;12.30;99.90
27779;DHT22;30234;48.090;11.464;2023-10-31T13:18:45;12.30;99.90
27779;DHT22;30234;48.090;11.464;2023-10-31T13:22:47;12.10;99.90
27779;DHT22;30234;48.090;11.464;2023-10-31T13:26:48;11.90;99.90
27779;DHT22;30234;48.090;11.464;2023-10-31T13:30:52;11.80;99.90
27779;DHT22;30234;48.090;11.464;2023-10-31T13:34:52;11.80;99.90
27779;DHT22;30234;48.090;11.464;2023-10-31T13:38:53;11.80;99.90
27779;DHT22;30234;48.090;11.464;2023-10-31T13:42:54;12.20;99.90
27779;DHT22;30234;48.090;11.464;2023-10-31T13:46:55;12.10;99.90
27779;DHT22;30234;48.090;11.464;2023-10-31T13:50:56;12.10;99.90
27779;DHT22;30234;48.090;11.464;2023-10-31T13:54:57;12.00;99.90
27779;DHT22;30234;48.090;11.464;2023-10-31T13:58:58;12.00;99.90
27779;DHT22;30234;48.090;11.464;2023-10-31T14:02:59;11.90;99.90
27779;DHT22;30234;48.090;11.464;2023-10-31T14:06:59;11.80;99.90
27779;DHT22;30234;48.090;11.464;2023-10-31T14:11:00;11.60;99.90
27779;DHT22;30234;48.090;11.464;2023-10-31T14:15:01;11.40;99.90
27779;DHT22;30234;48.090;11.464;2023-10-31T14:19:03;11.10;99.90
27779;DHT22;30234;48.090;11.464;2023-10-31T14:23:03;10.80;99.90
27779;DHT22;30234;48.090;11.464;2023-10-31T14:27:05;10.70;99.90
27779;DHT22;30234;48.090;11.464;2023-10-31T14:31:05;10.70;99.90
27779;DHT22;30234;48.090;11.464;2023-10-31T14:35:07;10.80;99.90
27779;DHT22;30234;48.090;11.464;2023-10-31T14:39:09;10.90;99.90
27779;DHT22;30234;48.090;11.464;2023-10-31T14:43:10;11.10;99.90
27779;DHT22;30234;48.090;11.464;2023-10-31T14:47:11;11.00;99.90
27779;DHT22;30234;48.090;11.464;2023-10-31T14:51:12;11.10;99.90
27779;DHT22;30234;48.090;11.464;2023-10-31T14:55:13;11.10;99.90
27779;DHT22;30234;48.090;11.464;2023-10-31T14:59:14;11.20;99.90
27779;DHT22;30234;48.090;11.464;2023-10-31T15:03:15;11.20;99.90
27779;DHT22;30234;48.090;11.464;2023-10-31T15:07:16;11.10;99.90
27779;DHT22;30234;48.090;11.464;2023-10-31T15:11:17;11.00;99.90
27779;DHT22;30234;48.090;11.464;2023-10-31T15:15:18;10.90;99.90
27779;DHT22;30234;48.090;11.464;2023-10-31T15:19:19;10.80;99.90
27779;DHT22;30234;48.090;11.464;2023-10-31T15:23:20;10.70;99.90
27779;DHT22;30234;48.090;11.464;2023-10-31T15:27:20;10.70;99.90
27779;DHT22;30234;48.090;11.464;2023-10-31T15:31:21;10.60;99.90
27779;DHT22;30234;48.090;11.464;2023-10-31T15:35:22;10.60;99.90
27779;DHT22;30234;48.090;11.464;2023-10-31T15:39:23;10.50;99.90
27779;DHT22;30234;48.090;11.464;2023-10-31T15:43:24;10.40;99.90
27779;DHT22;30234;48.090;11.464;2023-10-31T15:47:25;10.30;99.90
27779;DHT22;30234;48.090;11.464;2023-10-31T15:51:26;10.20;99.90
27779;DHT22;30234;48.090;11.464;2023-10-31T15:55:27;9.90;99.90
27779;DHT22;30234;48.090;11.464;2023-10-31T15:59:28;9.90;99.90
27779;DHT22;30234;48.090;11.464;2023-10-31T16:03:29;9.80;99.90
27779;DHT22;30234;48.090;11.464;2023-10-31T16:07:30;9.80;99.90
27779;DHT22;30234;48.090;11.464;2023-10-31T16:11:31;9.70;99.90
27779;DHT22;30234;48.090;11.464;2023-10-31T16:15:35;9.50;99.90
27779;DHT22;30234;48.090;11.464;2023-10-31T16:19:36;9.50;99.90
27779;DHT22;30234;48.090;11.464;2023-10-31T16:23:36;9.50;99.90
27779;DHT22;30234;48.090;11.464;2023-10-31T16:27:37;9.50;99.90
27779;DHT22;30234;48.090;11.464;2023-10-31T16:31:38;9.40;99.90
27779;DHT22;30234;48.090;11.464;2023-10-31T16:35:39;9.40;99.90
27779;DHT22;30234;48.090;11.464;2023-10-31T16:39:40;9.30;99.90
27779;DHT22;30234;48.090;11.464;2023-10-31T16:43:42;9.20;99.90
27779;DHT22;30234;48.090;11.464;2023-10-31T16:47:44;9.00;99.90
27779;DHT22;30234;48.090;11.464;2023-10-31T16:51:45;8.90;99.90
27779;DHT22;30234;48.090;11.464;2023-10-31T16:55:46;8.80;99.90
27779;DHT22;30234;48.090;11.464;2023-10-31T16:59:47;9.10;99.90
27779;DHT22;30234;48.090;11.464;2023-10-31T17:03:47;9.40;99.90
27779;DHT22;30234;48.090;11.464;2023-10-31T17:07:48;9.40;99.90
27779;DHT22;30234;48.090;11.464;2023-10-31T17:11:49;9.50;99.90
27779;DHT22;30234;48.090;11.464;2023-10-31T17:15:51;9.50;99.90
27779;DHT22;30234;48.090;11.464;2023-10-31T17:19:52;9.50;99.90
27779;DHT22;30234;48.090;11.464;2023-10-31T17:23:54;9.50;99.90
27779;DHT22;30234;48.090;11.464;2023-10-31T17:27:55;9.50;99.90
27779;DHT22;30234;48.090;11.464;2023-10-31T17:31:56;9.60;99.90
27779;DHT22;30234;48.090;11.464;2023-10-31T17:35:57;9.80;99.90
27779;DHT22;30234;48.090;11.464;2023-10-31T17:39:58;9.90;99.90
27779;DHT22;30234;48.090;11.464;2023-10-31T17:43:59;9.80;99.90
27779;DHT22;30234;48.090;11.464;2023-10-31T17:48:00;9.70;99.90
27779;DHT22;30234;48.090;11.464;2023-10-31T17:52:01;9.70;99.90
27779;DHT22;30234;48.090;11.464;2023-10-31T17:56:02;9.70;99.90
27779;DHT22;30234;48.090;11.464;2023-10-31T18:00:04;9.60;99.90
27779;DHT22;30234;48.090;11.464;2023-10-31T18:04:05;9.60;99.90
27779;DHT22;30234;48.090;11.464;2023-10-31T18:08:07;9.60;99.90
27779;DHT22;30234;48.090;11.464;2023-10-31T18:12:08;9.50;99.90
27779;DHT22;30234;48.090;11.464;2023-10-31T18:16:10;9.50;99.90
27779;DHT22;30234;48.090;11.464;2023-10-31T18:20:12;9.50;99.90
27779;DHT22;30234;48.090;11.464;2023-10-31T18:24:13;9.50;99.90
27779;DHT22;30234;48.090;11.464;2023-10-31T18:28:14;9.40;99.90
27779;DHT22;30234;48.090;11.464;2023-10-31T18:32:15;9.50;99.90
27779;DHT22;30234;48.090;11.464;2023-10-31T18:36:17;9.50;99.90
27779;DHT22;30234;48.090;11.464;2023-10-31T18:40:22;9.40;99.90
27779;DHT22;30234;48.090;11.464;2023-10-31T18:44:22;9.40;99.90
27779;DHT22;30234;48.090;11.464;2023-10-31T18:48:23;9.40;99.90
27779;DHT22;30234;48.090;11.464;2023-10-31T18:52:25;9.40;99.90
27779;DHT22;30234;48.090;11.464;2023-10-31T18:56:26;9.40;99.90
27779;DHT22;30234;48.090;11.464;2023-10-31T19:00:26;9.40;99.90
27779;DHT22;30234;48.090;11.464;2023-10-31T19:04:27;9.40;99.90
27779;DHT22;30234;48.090;11.464;2023-10-31T19:08:29;9.30;99.90
27779;DHT22;30234;48.090;11.464;2023-10-31T19:12:30;9.30;99.90
27779;DHT22;30234;48.090;11.464;2023-10-31T19:16:31;9.30;99.90
27779;DHT22;30234;48.090;11.464;2023-10-31T19:20:33;9.30;99.90
27779;DHT22;30234;48.090;11.464;2023-10-31T19:24:34;9.40;99.90
27779;DHT22;30234;48.090;11.464;2023-10-31T19:28:35;9.40;99.90
27779;DHT22;30234;48.090;11.464;2023-10-31T19:32:37;9.50;99.90
27779;DHT22;30234;48.090;11.464;2023-10-31T19:36:38;9.50;99.90
27779;DHT22;30234;48.090;11.464;2023-10-31T19:40:39;9.50;99.90
27779;DHT22;30234;48.090;11.464;2023-10-31T19:44:40;9.50;99.90
27779;DHT22;30234;48.090;11.464;2023-10-31T19:48:41;9.60;99.90
27779;DHT22;30234;48.090;11.464;2023-10-31T19:52:42;9.50;99.90
27779;DHT22;30234;48.090;11.464;2023-10-31T19:56:43;9.50;99.90
27779;DHT22;30234;48.090;11.464;2023-10-31T20:00:45;9.50;99.90
27779;DHT22;30234;48.090;11.464;2023-10-31T20:04:46;9.50;99.90
27779;DHT22;30234;48.090;11.464;2023-10-31T20:08:48;9.40;99.90
27779;DHT22;30234;48.090;11.464;2023-10-31T20:12:49;9.50;99.90
27779;DHT22;30234;48.090;11.464;2023-10-31T20:16:50;9.50;99.90
27779;DHT22;30234;48.090;11.464;2023-10-31T20:20:51;9.50;99.90
27779;DHT22;30234;48.090;11.464;2023-10-31T20:24:52;9.60;99.90
27779;DHT22;30234;48.090;11.464;2023-10-31T20:28:53;9.60;99.90
27779;DHT22;30234;48.090;11.464;2023-10-31T20:32:54;9.60;99.90
27779;DHT22;30234;48.090;11.464;2023-10-31T20:36:56;9.60;99.90
27779;DHT22;30234;48.090;11.464;2023-10-31T20:40:57;9.70;99.90
27779;DHT22;30234;48.090;11.464;2023-10-31T20:44:58;9.70;99.90
27779;DHT22;30234;48.090;11.464;2023-10-31T20:48:59;9.80;99.90
27779;DHT22;30234;48.090;11.464;2023-10-31T20:53:01;9.90;99.90
27779;DHT22;30234;48.090;11.464;2023-10-31T20:57:03;9.80;99.90
27779;DHT22;30234;48.090;11.464;2023-10-31T21:01:04;9.90;99.90
27779;DHT22;30234;48.090;11.464;2023-10-31T21:05:07;10.00;99.90
27779;DHT22;30234;48.090;11.464;2023-10-31T21:09:08;10.00;99.90
27779;DHT22;30234;48.090;11.464;2023-10-31T21:13:13;9.90;99.90
27779;DHT22;30234;48.090;11.464;2023-10-31T21:17:14;9.90;99.90
27779;DHT22;30234;48.090;11.464;2023-10-31T21:21:15;9.90;99.90
27779;DHT22;30234;48.090;11.464;2023-10-31T21:25:17;10.00;99.90
27779;DHT22;30234;48.090;11.464;2023-10-31T21:29:18;10.00;99.90
27779;DHT22;30234;48.090;11.464;2023-10-31T21:33:19;10.10;99.90
27779;DHT22;30234;48.090;11.464;2023-10-31T21:37:20;10.10;99.90
27779;DHT22;30234;48.090;11.464;2023-10-31T21:41:23;10.00;99.90
27779;DHT22;30234;48.090;11.464;2023-10-31T21:45:24;10.00;99.90
27779;DHT22;30234;48.090;11.464;2023-10-31T21:49:25;10.10;99.90
27779;DHT22;30234;48.090;11.464;2023-10-31T21:53:27;10.10;99.90
27779;DHT22;30234;48.090;11.464;2023-10-31T21:57:27;10.10;99.90
27779;DHT22;30234;48.090;11.464;2023-10-31T22:01:28;10.10;99.90
27779;DHT22;30234;48.090;11.464;2023-10-31T22:05:29;10.00;99.90
27779;DHT22;30234;48.090;11.464;2023-10-31T22:09:30;9.90;99.90
27779;DHT22;30234;48.090;11.464;2023-10-31T22:13:31;10.00;99.90
27779;DHT22;30234;48.090;11.464;2023-10-31T22:17:32;10.00;99.90
27779;DHT22;30234;48.090;11.464;2023-10-31T22:21:33;10.00;99.90
27779;DHT22;30234;48.090;11.464;2023-10-31T22:25:34;10.10;99.90
27779;DHT22;30234;48.090;11.464;2023-10-31T22:29:35;10.10;99.90
27779;DHT22;30234;48.090;11.464;2023-10-31T22:33:36;10.20;99.90
27779;DHT22;30234;48.090;11.464;2023-10-31T22:37:37;10.10;99.90
27779;DHT22;30234;48.090;11.464;2023-10-31T22:41:38;10.10;99.90
27779;DHT22;30234;48.090;11.464;2023-10-31T22:45:39;10.10;99.90
27779;DHT22;30234;48.090;11.464;2023-10-31T22:49:40;10.10;99.90
27779;DHT22;30234;48.090;11.464;2023-10-31T22:53:41;10.10;99.90
27779;DHT22;30234;48.090;11.464;2023-10-31T22:57:43;10.10;99.90
27779;DHT22;30234;48.090;11.464;2023-10-31T23:01:45;10.00;99.90
27779;DHT22;30234;48.090;11.464;2023-10-31T23:05:48;9.90;99.90
27779;DHT22;30234;48.090;11.464;2023-10-31T23:09:49;9.90;99.90
27779;DHT22;30234;48.090;11.464;2023-10-31T23:13:50;9.90;99.90
27779;DHT22;30234;48.090;11.464;2023-10-31T23:17:51;10.00;99.90
27779;DHT22;30234;48.090;11.464;2023-10-31T23:21:53;10.00;99.90
27779;DHT22;30234;48.090;11.464;2023-10-31T23:25:54;10.10;99.90
27779;DHT22;30234;48.090;11.464;2023-10-31T23:29:55;10.10;99.90
27779;DHT22;30234;48.090;11.464;2023-10-31T23:33:57;10.00;99.90
27779;DHT22;30234;48.090;11.464;2023-10-31T23:37:58;10.10;99.90
27779;DHT22;30234;48.090;11.464;2023-10-31T23:41:58;10.10;99.90
27779;DHT22;30234;48.090;11.464;2023-10-31T23:45:59;10.10;99.90
27779;DHT22;30234;48.090;11.464;2023-10-31T23:50:00;9.80;99.90
27779;DHT22;30234;48.090;11.464;2023-10-31T23:54:01;9.80;99.90
27779;DHT22;30234;48.090;11.464;2023-10-31T23:58:02;9.60;99.90
